createdAt,value
2018-05-25T00:02:22.385Z,14.33
2018-05-25T00:04:51.168Z,16.90
2018-05-25T00:07:18.696Z,16.20
2018-05-25T00:09:46.218Z,20.53
2018-05-25T00:12:13.800Z,22.40
2018-05-25T00:14:41.326Z,17.50
2018-05-25T00:17:08.963Z,14.77
2018-05-25T00:19:36.484Z,22.53
2018-05-25T00:22:04.274Z,17.27
2018-05-25T00:24:31.805Z,17.47
2018-05-25T00:26:59.333Z,19.80
2018-05-25T00:29:26.883Z,20.70
2018-05-25T00:31:54.408Z,20.33
2018-05-25T00:34:21.969Z,19.23
2018-05-25T00:36:49.489Z,20.20
2018-05-25T00:39:17.253Z,17.07
2018-05-25T00:41:44.775Z,29.00
2018-05-25T00:44:12.348Z,18.60
2018-05-25T00:46:39.897Z,19.77
2018-05-25T00:49:07.449Z,18.67
2018-05-25T00:51:35.005Z,18.67
2018-05-25T00:54:02.535Z,16.27
2018-05-25T00:56:30.101Z,16.77
2018-05-25T00:58:57.628Z,24.00
2018-05-25T01:01:25.155Z,18.57
2018-05-25T01:03:52.720Z,20.87
2018-05-25T01:06:20.255Z,16.53
2018-05-25T01:08:47.816Z,13.30
2018-05-25T01:11:15.352Z,19.67
2018-05-25T01:13:43.012Z,18.10
2018-05-25T01:16:10.536Z,15.90
2018-05-25T01:18:38.061Z,15.90
2018-05-25T01:21:05.624Z,30.87
2018-05-25T01:23:33.153Z,18.27
2018-05-25T01:26:00.706Z,20.13
2018-05-25T01:28:28.234Z,17.20
2018-05-25T01:30:56.136Z,20.70
2018-05-25T01:33:23.660Z,17.47
2018-05-25T01:35:51.181Z,17.00
2018-05-25T01:38:18.738Z,15.07
2018-05-25T01:40:46.269Z,18.20
2018-05-25T01:43:13.816Z,22.27
2018-05-25T01:45:41.341Z,21.80
2018-05-25T01:48:08.901Z,20.93
2018-05-25T01:50:36.420Z,23.03
2018-05-25T01:53:03.960Z,20.07
2018-05-25T01:55:31.516Z,20.43
2018-05-25T01:57:59.041Z,22.03
2018-05-25T02:00:26.593Z,22.63
2018-05-25T02:02:54.127Z,21.73
2018-05-25T02:05:21.974Z,25.33
2018-05-25T02:07:49.516Z,31.23
2018-05-25T02:10:17.040Z,24.23
2018-05-25T02:12:44.889Z,23.23
2018-05-25T02:15:12.755Z,25.10
2018-05-25T02:17:40.308Z,31.10
2018-05-25T02:20:07.831Z,27.40
2018-05-25T02:22:35.401Z,24.70
2018-05-25T02:25:02.933Z,27.77
2018-05-25T02:27:30.464Z,26.20
2018-05-25T02:29:58.022Z,27.00
2018-05-25T02:32:25.561Z,36.90
2018-05-25T02:34:53.128Z,27.43
2018-05-25T02:37:20.668Z,27.57
2018-05-25T02:39:48.212Z,26.50
2018-05-25T02:42:15.765Z,25.23
2018-05-25T02:44:43.289Z,24.00
2018-05-25T02:47:10.841Z,29.77
2018-05-25T02:49:38.365Z,25.50
2018-05-25T02:52:05.918Z,25.77
2018-05-25T02:54:33.446Z,29.80
2018-05-25T02:57:00.975Z,27.23
2018-05-25T02:59:28.535Z,25.47
2018-05-25T03:01:56.064Z,23.30
2018-05-25T03:04:24.008Z,25.70
2018-05-25T03:06:51.537Z,28.90
2018-05-25T03:09:19.060Z,30.40
2018-05-25T03:11:46.612Z,31.93
2018-05-25T03:14:14.141Z,37.00
2018-05-25T03:16:41.717Z,31.80
2018-05-25T03:19:09.252Z,34.07
2018-05-25T03:21:36.782Z,35.27
2018-05-25T03:24:04.336Z,34.57
2018-05-25T03:26:31.869Z,34.93
2018-05-25T03:28:59.536Z,29.77
2018-05-25T03:31:27.122Z,33.77
2018-05-25T03:33:54.649Z,35.00
2018-05-25T03:36:22.200Z,27.03
2018-05-25T03:38:49.721Z,30.77
2018-05-25T03:41:17.264Z,32.70
2018-05-25T03:43:44.784Z,27.10
2018-05-25T03:46:12.505Z,27.07
2018-05-25T03:48:40.036Z,29.50
2018-05-25T03:51:07.788Z,35.37
2018-05-25T03:53:35.345Z,32.10
2018-05-25T03:56:02.865Z,37.27
2018-05-25T03:58:42.392Z,41.27
2018-05-25T04:01:21.785Z,38.77
2018-05-25T04:03:49.341Z,41.33
2018-05-25T04:06:16.885Z,40.03
2018-05-25T04:08:44.452Z,38.10
2018-05-25T04:11:11.982Z,40.83
2018-05-25T04:13:39.507Z,34.33
2018-05-25T04:16:07.056Z,34.63
2018-05-25T04:18:34.577Z,35.70
2018-05-25T04:21:02.171Z,41.77
2018-05-25T04:23:29.717Z,39.50
2018-05-25T04:25:57.281Z,47.53
2018-05-25T04:28:24.805Z,40.50
2018-05-25T04:30:52.340Z,34.87
2018-05-25T04:33:19.897Z,37.93
2018-05-25T04:35:48.403Z,39.33
2018-05-25T04:38:15.967Z,40.77
2018-05-25T04:40:43.490Z,37.00
2018-05-25T04:43:11.181Z,34.27
2018-05-25T04:45:38.776Z,30.57
2018-05-25T04:48:06.302Z,34.30
2018-05-25T04:50:33.845Z,33.20
2018-05-25T04:53:01.374Z,39.93
2018-05-25T04:55:28.932Z,37.23
2018-05-25T04:57:56.456Z,38.93
2018-05-25T05:00:24.184Z,37.93
2018-05-25T05:02:51.724Z,36.07
2018-05-25T05:05:19.265Z,41.67
2018-05-25T05:07:46.808Z,35.70
2018-05-25T05:10:14.344Z,33.27
2018-05-25T05:12:41.998Z,32.90
2018-05-25T05:15:09.530Z,31.47
2018-05-25T05:17:37.300Z,29.53
2018-05-25T05:20:04.829Z,37.17
2018-05-25T05:22:32.366Z,30.20
2018-05-25T05:24:59.933Z,33.47
2018-05-25T05:27:27.456Z,30.80
2018-05-25T05:29:55.014Z,28.87
2018-05-25T05:32:22.539Z,28.83
2018-05-25T05:34:50.321Z,31.50
2018-05-25T05:37:17.853Z,30.30
2018-05-25T05:39:46.009Z,32.57
2018-05-25T05:42:13.568Z,34.43
2018-05-25T05:44:42.012Z,31.93
2018-05-25T05:47:09.569Z,26.47
2018-05-25T05:49:37.096Z,26.00
2018-05-25T05:52:04.676Z,31.80
2018-05-25T05:54:32.292Z,25.03
2018-05-25T05:56:59.821Z,26.97
2018-05-25T05:59:27.372Z,25.33
2018-05-25T06:01:54.914Z,26.23
2018-05-25T06:04:22.522Z,25.33
2018-05-25T06:06:50.004Z,27.23
2018-05-25T06:09:17.793Z,31.30
2018-05-25T06:11:45.321Z,22.70
2018-05-25T06:14:13.851Z,21.83
2018-05-25T06:16:41.409Z,22.60
2018-05-25T06:19:08.956Z,26.80
2018-05-25T06:21:36.516Z,21.10
2018-05-25T06:24:04.068Z,25.00
2018-05-25T06:26:31.632Z,18.73
2018-05-25T06:28:59.159Z,20.47
2018-05-25T06:31:26.685Z,19.77
2018-05-25T06:33:54.242Z,21.70
2018-05-25T06:36:22.807Z,23.77
2018-05-25T06:38:50.879Z,27.30
2018-05-25T06:41:18.424Z,23.00
2018-05-25T06:43:46.935Z,24.70
2018-05-25T06:46:14.457Z,33.13
2018-05-25T06:48:41.993Z,18.00
2018-05-25T06:51:09.617Z,25.73
2018-05-25T06:53:37.144Z,22.73
2018-05-25T06:56:04.715Z,20.73
2018-05-25T06:58:32.241Z,21.83
2018-05-25T07:00:59.812Z,21.87
2018-05-25T07:03:27.341Z,21.77
2018-05-25T07:05:54.864Z,16.40
2018-05-25T07:08:22.424Z,13.30
2018-05-25T07:10:49.948Z,16.40
2018-05-25T07:13:17.520Z,19.17
2018-05-25T07:15:46.010Z,17.70
2018-05-25T07:18:13.724Z,15.43
2018-05-25T07:20:41.252Z,14.93
2018-05-25T07:23:08.780Z,19.17
2018-05-25T07:25:36.328Z,18.63
2018-05-25T07:28:03.856Z,18.13
2018-05-25T07:30:31.421Z,17.67
2018-05-25T07:32:58.943Z,14.70
2018-05-25T07:35:26.525Z,20.10
2018-05-25T07:37:54.055Z,17.83
2018-05-25T07:40:21.583Z,17.13
2018-05-25T07:42:49.137Z,18.70
2018-05-25T07:45:16.669Z,20.23
2018-05-25T07:47:44.230Z,16.20
2018-05-25T07:50:11.766Z,20.23
2018-05-25T07:52:39.341Z,17.43
2018-05-25T07:55:06.861Z,19.87
2018-05-25T07:57:34.387Z,18.87
2018-05-25T08:00:01.943Z,17.33
2018-05-25T08:02:29.469Z,21.30
2018-05-25T08:04:58.007Z,23.70
2018-05-25T08:07:25.538Z,26.10
2018-05-25T08:09:53.105Z,18.53
2018-05-25T08:12:20.634Z,16.80
2018-05-25T08:14:48.168Z,20.60
2018-05-25T08:17:15.732Z,21.43
2018-05-25T08:19:43.252Z,23.27
2018-05-25T08:22:10.811Z,18.90
2018-05-25T08:24:38.333Z,18.17
2018-05-25T08:27:06.128Z,24.03
2018-05-25T08:29:33.821Z,20.00
2018-05-25T08:32:01.571Z,19.67
2018-05-25T08:34:29.141Z,18.83
2018-05-25T08:36:56.668Z,16.53
2018-05-25T08:39:24.225Z,11.87
2018-05-25T08:41:51.758Z,15.80
2018-05-25T08:44:19.321Z,15.67
2018-05-25T08:46:46.845Z,18.70
2018-05-25T08:49:14.364Z,12.73
2018-05-25T08:51:41.921Z,15.27
2018-05-25T08:54:09.441Z,14.93
2018-05-25T08:56:37.013Z,19.30
2018-05-25T08:59:04.548Z,12.80
2018-05-25T09:01:32.363Z,17.40
2018-05-25T09:03:59.891Z,12.87
2018-05-25T09:06:27.406Z,11.40
2018-05-25T09:08:54.961Z,20.03
2018-05-25T09:11:22.529Z,17.63
2018-05-25T09:13:50.108Z,12.50
2018-05-25T09:16:17.637Z,14.20
2018-05-25T09:18:45.209Z,15.07
2018-05-25T09:21:12.737Z,14.83
2018-05-25T09:23:40.261Z,16.07
2018-05-25T09:26:07.819Z,12.37
2018-05-25T09:28:35.352Z,14.93
2018-05-25T09:31:02.903Z,9.80
2018-05-25T09:33:30.423Z,12.63
2018-05-25T09:35:58.126Z,9.70
2018-05-25T09:38:25.640Z,9.90
2018-05-25T09:40:53.178Z,13.93
2018-05-25T09:43:20.726Z,11.93
2018-05-25T09:45:48.260Z,21.63
2018-05-25T09:48:15.800Z,8.53
2018-05-25T09:50:43.349Z,8.50
2018-05-25T09:53:11.319Z,8.50
2018-05-25T09:55:38.841Z,15.17
2018-05-25T09:58:06.356Z,8.60
2018-05-25T10:00:33.900Z,10.77
2018-05-25T10:03:01.424Z,9.77
2018-05-25T10:05:28.974Z,9.23
2018-05-25T10:07:56.520Z,11.20
2018-05-25T10:10:24.344Z,8.70
2018-05-25T10:12:51.873Z,11.10
2018-05-25T10:15:19.396Z,7.47
2018-05-25T10:17:46.941Z,7.50
2018-05-25T10:20:14.458Z,9.13
2018-05-25T10:22:42.021Z,7.37
2018-05-25T10:25:09.541Z,8.68
2018-05-25T10:27:37.251Z,5.65
2018-05-25T10:30:04.769Z,6.45
2018-05-25T10:32:32.298Z,9.77
2018-05-25T10:34:59.895Z,10.88
2018-05-25T10:37:27.383Z,4.80
2018-05-25T10:39:54.937Z,7.53
2018-05-25T10:42:22.481Z,5.37
2018-05-25T10:44:50.337Z,4.75
2018-05-25T10:47:17.882Z,4.68
2018-05-25T10:49:45.417Z,4.62
2018-05-25T10:52:13.153Z,5.68
2018-05-25T10:54:40.669Z,9.50
2018-05-25T10:57:08.192Z,7.07
2018-05-25T10:59:35.756Z,7.20
2018-05-25T11:02:03.273Z,7.22
2018-05-25T11:04:31.260Z,6.55
2018-05-25T11:06:58.784Z,7.15
2018-05-25T11:09:26.300Z,9.07
2018-05-25T11:11:53.852Z,4.93
2018-05-25T11:14:21.384Z,17.03
2018-05-25T11:16:49.284Z,6.77
2018-05-25T11:19:16.796Z,6.03
2018-05-25T11:21:44.331Z,5.47
2018-05-25T11:24:11.896Z,6.18
2018-05-25T11:26:39.411Z,6.20
2018-05-25T11:29:07.164Z,3.92
2018-05-25T11:31:34.689Z,3.40
2018-05-25T11:34:02.216Z,5.00
2018-05-25T11:36:29.761Z,3.90
2018-05-25T11:38:57.289Z,3.22
2018-05-25T11:41:25.805Z,2.80
2018-05-25T11:43:53.320Z,4.03
2018-05-25T11:46:21.080Z,6.78
2018-05-25T11:48:48.597Z,3.08
2018-05-25T11:51:16.108Z,3.03
2018-05-25T11:53:43.652Z,5.63
2018-05-25T11:56:11.176Z,3.80
2018-05-25T11:58:38.717Z,2.10
2018-05-25T12:01:06.244Z,2.45
2018-05-25T12:03:33.986Z,3.62
2018-05-25T12:06:01.504Z,2.72
2018-05-25T12:08:29.025Z,2.85
2018-05-25T12:10:56.616Z,3.58
2018-05-25T12:13:24.128Z,4.32
2018-05-25T12:15:51.772Z,8.25
2018-05-25T12:18:19.309Z,6.53
2018-05-25T12:20:46.852Z,4.82
2018-05-25T12:23:14.365Z,3.00
2018-05-25T12:25:43.001Z,4.25
2018-05-25T12:28:10.559Z,5.68
2018-05-25T12:30:38.936Z,9.07
2018-05-25T12:33:06.670Z,7.30
2018-05-25T12:35:34.743Z,4.30
2018-05-25T12:38:03.365Z,3.35
2018-05-25T12:40:31.535Z,7.70
2018-05-25T12:42:59.370Z,4.12
2018-05-25T12:45:26.949Z,6.95
2018-05-25T12:47:54.688Z,3.17
2018-05-25T12:50:22.584Z,4.28
2018-05-25T12:52:51.340Z,2.95
2018-05-25T12:55:19.138Z,4.87
2018-05-25T12:57:46.712Z,4.35
2018-05-25T13:00:15.829Z,3.20
2018-05-25T13:02:46.099Z,4.20
2018-05-25T13:05:14.308Z,3.78
2018-05-25T13:07:41.888Z,3.70
2018-05-25T13:10:10.529Z,4.20
2018-05-25T13:12:38.484Z,3.53
2018-05-25T13:15:07.089Z,3.85
2018-05-25T13:17:34.676Z,6.70
2018-05-25T13:20:03.161Z,3.25
2018-05-25T13:22:30.732Z,2.70
2018-05-25T13:25:00.596Z,3.07
2018-05-25T13:27:28.109Z,4.00
2018-05-25T13:29:55.931Z,3.37
2018-05-25T13:32:23.484Z,5.27
2018-05-25T13:34:51.351Z,5.50
2018-05-25T13:37:19.400Z,4.30
2018-05-25T13:39:47.683Z,3.50
2018-05-25T13:42:16.236Z,4.00
2018-05-25T13:44:44.661Z,3.83
2018-05-25T13:47:13.361Z,4.37
2018-05-25T13:49:40.883Z,5.80
2018-05-25T13:52:09.467Z,4.37
2018-05-25T13:54:37.097Z,5.07
2018-05-25T13:57:04.704Z,3.73
2018-05-25T13:59:33.088Z,6.80
2018-05-25T14:02:00.656Z,5.20
2018-05-25T14:04:28.580Z,5.93
2018-05-25T14:06:58.025Z,4.20
2018-05-25T14:09:28.240Z,4.40
2018-05-25T14:11:55.826Z,4.50
2018-05-25T14:14:23.873Z,4.13
2018-05-25T14:16:51.627Z,3.63
2018-05-25T14:19:20.168Z,3.90
2018-05-25T14:21:48.509Z,3.40
2018-05-25T14:24:17.079Z,4.80
2018-05-25T14:26:44.828Z,3.83
2018-05-25T14:29:13.094Z,3.60
2018-05-25T14:31:42.319Z,3.43
2018-05-25T14:34:09.864Z,4.20
2018-05-25T14:36:38.444Z,3.60
2018-05-25T14:39:07.046Z,4.47
2018-05-25T14:41:36.215Z,4.97
2018-05-25T14:44:04.518Z,4.13
2018-05-25T14:46:32.061Z,6.90
2018-05-25T14:49:00.320Z,7.47
2018-05-25T14:51:29.123Z,11.27
2018-05-25T14:53:56.836Z,5.17
2018-05-25T14:56:24.548Z,5.00
2018-05-25T14:58:53.152Z,4.87
2018-05-25T15:01:22.218Z,4.67
2018-05-25T15:03:50.830Z,3.33
2018-05-25T15:06:18.720Z,3.23
2018-05-25T15:08:46.433Z,3.20
2018-05-25T15:11:14.824Z,3.80
2018-05-25T15:13:42.708Z,3.20
2018-05-25T15:16:10.573Z,3.33
2018-05-25T15:18:38.432Z,4.27
2018-05-25T15:21:06.239Z,3.30
2018-05-25T15:23:37.055Z,3.63
2018-05-25T15:26:04.919Z,4.93
2018-05-25T15:28:34.012Z,4.53
2018-05-25T15:31:02.455Z,3.53
2018-05-25T15:33:32.601Z,3.97
2018-05-25T15:36:01.071Z,4.63
2018-05-25T15:38:28.677Z,5.83
2018-05-25T15:40:57.126Z,3.50
2018-05-25T15:43:24.849Z,3.10
2018-05-25T15:45:52.485Z,4.40
2018-05-25T15:48:20.100Z,3.60
2018-05-25T15:50:47.761Z,5.13
2018-05-25T15:53:15.520Z,9.70
2018-05-25T15:55:43.056Z,4.80
2018-05-25T15:58:10.585Z,7.03
2018-05-25T16:00:43.712Z,7.17
2018-05-25T16:03:11.225Z,3.93
2018-05-25T16:05:38.769Z,7.40
2018-05-25T16:08:06.370Z,3.73
2018-05-25T16:10:36.214Z,6.33
2018-05-25T16:13:11.901Z,2.80
2018-05-25T16:15:39.832Z,4.13
2018-05-25T16:18:07.358Z,7.40
2018-05-25T16:20:34.872Z,4.23
2018-05-25T16:23:02.416Z,2.87
2018-05-25T16:25:29.928Z,4.17
2018-05-25T16:27:57.468Z,3.80
2018-05-25T16:30:24.986Z,3.63
2018-05-25T16:32:52.524Z,7.90
2018-05-25T16:35:20.452Z,5.30
2018-05-25T16:37:47.969Z,3.13
2018-05-25T16:40:15.570Z,6.10
2018-05-25T16:42:43.062Z,7.40
2018-05-25T16:45:10.616Z,4.40
2018-05-25T16:47:38.132Z,2.97
2018-05-25T16:50:05.745Z,3.60
2018-05-25T16:52:33.225Z,3.00
2018-05-25T16:55:00.744Z,9.97
2018-05-25T16:57:29.848Z,9.57
2018-05-25T16:59:57.473Z,4.77
2018-05-25T17:02:25.005Z,3.63
2018-05-25T17:04:52.556Z,6.90
2018-05-25T17:07:26.501Z,3.83
2018-05-25T17:09:54.054Z,8.97
2018-05-25T17:12:21.596Z,4.13
2018-05-25T17:15:02.318Z,3.00
2018-05-25T17:17:29.846Z,4.07
2018-05-25T17:19:57.397Z,3.60
2018-05-25T17:22:24.937Z,5.07
2018-05-25T17:24:52.480Z,6.60
2018-05-25T17:27:20.021Z,3.53
2018-05-25T17:29:47.549Z,5.33
2018-05-25T17:32:15.129Z,5.30
2018-05-25T17:34:42.641Z,4.20
2018-05-25T17:37:10.692Z,5.03
2018-05-25T17:39:38.216Z,9.13
2018-05-25T17:42:09.155Z,8.43
2018-05-25T17:44:36.705Z,3.33
2018-05-25T17:47:04.226Z,3.37
2018-05-25T17:49:31.902Z,7.07
2018-05-25T17:52:00.496Z,3.10
2018-05-25T17:54:31.188Z,4.33
2018-05-25T17:56:58.804Z,3.33
2018-05-25T17:59:26.280Z,8.13
2018-05-25T18:01:53.829Z,7.27
2018-05-25T18:04:21.368Z,11.03
2018-05-25T18:06:48.968Z,3.87
2018-05-25T18:09:16.467Z,4.20
2018-05-25T18:11:44.329Z,10.50
2018-05-25T18:14:11.990Z,8.57
2018-05-25T18:16:39.505Z,4.60
2018-05-25T18:19:07.044Z,3.90
2018-05-25T18:21:34.561Z,8.73
2018-05-25T18:24:02.112Z,5.63
2018-05-25T18:26:29.629Z,6.63
2018-05-25T18:28:58.335Z,6.53
2018-05-25T18:31:25.911Z,4.73
2018-05-25T18:33:53.471Z,6.57
2018-05-25T18:36:21.190Z,7.87
2018-05-25T18:38:48.780Z,7.20
2018-05-25T18:41:16.474Z,8.30
2018-05-25T18:43:44.116Z,6.00
2018-05-25T18:46:11.672Z,13.53
2018-05-25T18:48:39.184Z,7.10
2018-05-25T18:51:06.767Z,6.30
2018-05-25T18:53:34.431Z,8.40
2018-05-25T18:56:02.204Z,7.13
2018-05-25T18:58:29.900Z,8.20
2018-05-25T19:00:57.563Z,11.73
2018-05-25T19:03:25.335Z,9.00
2018-05-25T19:05:53.298Z,9.37
2018-05-25T19:08:20.979Z,8.17
2018-05-25T19:10:48.881Z,9.37
2018-05-25T19:13:16.690Z,12.37
2018-05-25T19:15:44.557Z,6.70
2018-05-25T19:18:12.203Z,13.10
2018-05-25T19:20:39.882Z,6.10
2018-05-25T19:23:07.645Z,8.53
2018-05-25T19:25:35.305Z,9.97
2018-05-25T19:28:02.916Z,8.10
2018-05-25T19:30:30.593Z,19.50
2018-05-25T19:32:58.588Z,15.23
2018-05-25T19:35:26.232Z,15.70
2018-05-25T19:37:54.121Z,14.27
2018-05-25T19:40:21.688Z,21.40
2018-05-25T19:42:49.344Z,10.93
2018-05-25T19:45:17.059Z,14.33
2018-05-25T19:47:44.737Z,12.83
2018-05-25T19:50:12.437Z,16.67
2018-05-25T19:52:40.816Z,10.03
2018-05-25T19:55:08.785Z,12.47
2018-05-25T19:57:36.588Z,13.40
2018-05-25T20:00:04.416Z,10.47
2018-05-25T20:02:32.059Z,10.67
2018-05-25T20:05:00.047Z,13.93
2018-05-25T20:07:27.718Z,8.90
2018-05-25T20:09:55.465Z,18.73
2018-05-25T20:12:23.062Z,13.07
2018-05-25T20:14:50.795Z,10.30
2018-05-25T20:17:18.560Z,15.40
2018-05-25T20:19:46.223Z,15.60
2018-05-25T20:22:14.191Z,13.70
2018-05-25T20:24:42.130Z,15.00
2018-05-25T20:27:10.758Z,15.47
2018-05-25T20:29:40.956Z,8.70
2018-05-25T20:32:10.063Z,11.73
2018-05-25T20:34:40.156Z,15.53
2018-05-25T20:37:09.444Z,12.33
2018-05-25T20:39:38.268Z,15.10
2018-05-25T20:42:07.678Z,11.17
2018-05-25T20:44:35.333Z,13.00
2018-05-25T20:47:02.929Z,10.00
2018-05-25T20:49:33.850Z,10.83
2018-05-25T20:52:02.784Z,10.13
2018-05-25T20:54:30.483Z,11.00
2018-05-25T20:56:58.351Z,12.00
2018-05-25T20:59:26.867Z,14.60
2018-05-25T21:01:56.237Z,10.60
2018-05-25T21:04:24.905Z,11.67
2018-05-25T21:06:53.252Z,11.97
2018-05-25T21:09:20.944Z,10.90
2018-05-25T21:11:48.486Z,10.00
2018-05-25T21:14:16.815Z,11.23
2018-05-25T21:16:44.569Z,10.40
2018-05-25T21:19:12.101Z,9.87
2018-05-25T21:21:39.652Z,14.33
2018-05-25T21:24:07.207Z,12.53
2018-05-25T21:26:34.992Z,10.50
2018-05-25T21:29:03.594Z,8.40
2018-05-25T21:31:31.560Z,10.87
2018-05-25T21:34:00.225Z,10.17
2018-05-25T21:36:27.762Z,17.83
2018-05-25T21:38:55.414Z,19.00
2018-05-25T21:41:22.937Z,10.90
2018-05-25T21:43:50.835Z,15.53
2018-05-25T21:46:18.383Z,10.63
2018-05-25T21:48:45.939Z,10.60
2018-05-25T21:51:13.513Z,12.20
2018-05-25T21:53:41.069Z,11.07
2018-05-25T21:56:08.629Z,16.63
2018-05-25T21:58:36.161Z,12.17
2018-05-25T22:01:03.741Z,12.40
2018-05-25T22:03:31.273Z,17.13
2018-05-25T22:05:58.792Z,12.80
2018-05-25T22:08:26.341Z,13.80
2018-05-25T22:10:53.857Z,11.70
2018-05-25T22:13:21.405Z,10.90
2018-05-25T22:15:48.945Z,11.10
2018-05-25T22:18:17.236Z,12.10
2018-05-25T22:20:44.781Z,10.33
2018-05-25T22:23:13.436Z,11.30
2018-05-25T22:25:40.981Z,10.20
2018-05-25T22:28:08.517Z,15.27
2018-05-25T22:30:36.066Z,11.47
2018-05-25T22:33:04.341Z,10.27
2018-05-25T22:35:32.090Z,11.40
2018-05-25T22:37:59.609Z,15.67
2018-05-25T22:40:27.128Z,11.23
2018-05-25T22:43:06.488Z,10.53
2018-05-25T22:45:45.784Z,13.00
2018-05-25T22:48:25.057Z,15.93
2018-05-25T22:51:04.445Z,11.10
2018-05-25T22:53:37.194Z,13.17
2018-05-25T22:56:04.756Z,11.77
2018-05-25T22:58:33.848Z,12.23
2018-05-25T23:01:01.508Z,13.53
2018-05-25T23:03:29.069Z,12.63
2018-05-25T23:05:56.605Z,15.90
2018-05-25T23:08:24.317Z,13.27
2018-05-25T23:10:51.837Z,17.60
2018-05-25T23:13:19.370Z,12.87
2018-05-25T23:15:46.920Z,15.00
2018-05-25T23:18:14.438Z,11.70
2018-05-25T23:20:41.981Z,12.13
2018-05-25T23:23:09.512Z,15.63
2018-05-25T23:25:37.332Z,17.83
2018-05-25T23:28:05.757Z,11.10
2018-05-25T23:30:33.904Z,12.70
2018-05-25T23:33:01.481Z,14.60
2018-05-25T23:35:29.003Z,11.93
2018-05-25T23:37:56.564Z,13.03
2018-05-25T23:40:24.084Z,13.60
2018-05-25T23:42:51.779Z,13.50
2018-05-25T23:45:19.301Z,14.40
2018-05-25T23:47:47.915Z,11.27
2018-05-25T23:50:15.467Z,11.70
2018-05-25T23:52:42.984Z,16.27
2018-05-25T23:55:10.541Z,15.50
2018-05-25T23:57:38.065Z,19.27
